createdAt,value
2023-03-06T00:00:56.384Z,16.27
2023-03-06T00:03:23.801Z,18.23
2023-03-06T00:05:51.138Z,17.73
2023-03-06T00:08:20.531Z,14.88
2023-03-06T00:10:47.627Z,16.63
2023-03-06T00:13:16.015Z,16.23
2023-03-06T00:15:43.198Z,13.57
2023-03-06T00:18:10.365Z,14.82
2023-03-06T00:20:39.378Z,15.40
2023-03-06T00:23:06.541Z,16.40
2023-03-06T00:25:36.806Z,16.75
2023-03-06T00:28:05.014Z,12.52
2023-03-06T00:30:32.274Z,13.07
2023-03-06T00:32:59.428Z,15.40
2023-03-06T00:35:26.618Z,14.52
2023-03-06T00:37:53.821Z,14.27
2023-03-06T00:40:22.194Z,16.13
2023-03-06T00:42:49.413Z,15.00
2023-03-06T00:45:16.603Z,15.75
2023-03-06T00:47:44.877Z,16.83
2023-03-06T00:50:12.197Z,15.95
2023-03-06T00:52:39.572Z,14.82
2023-03-06T00:55:09.184Z,16.10
2023-03-06T00:57:36.340Z,15.68
2023-03-06T01:00:04.434Z,17.23
2023-03-06T01:02:31.956Z,17.08
2023-03-06T01:04:59.219Z,15.75
2023-03-06T01:07:27.838Z,15.20
2023-03-06T01:09:55.042Z,15.60
2023-03-06T01:12:23.514Z,13.60
2023-03-06T01:14:51.408Z,17.17
2023-03-06T01:17:18.636Z,15.98
2023-03-06T01:19:45.826Z,14.65
2023-03-06T01:22:14.174Z,15.00
2023-03-06T01:24:41.343Z,16.13
2023-03-06T01:27:08.556Z,15.95
2023-03-06T01:29:35.974Z,19.15
2023-03-06T01:32:03.280Z,19.23
2023-03-06T01:34:30.581Z,17.55
2023-03-06T01:36:57.810Z,19.05
2023-03-06T01:39:25.128Z,17.33
2023-03-06T01:41:52.454Z,19.35
2023-03-06T01:44:19.656Z,17.67
2023-03-06T01:46:47.487Z,17.38
2023-03-06T01:49:26.425Z,19.02
2023-03-06T01:52:08.886Z,19.58
2023-03-06T01:54:46.839Z,19.70
2023-03-06T01:57:26.361Z,19.45
2023-03-06T01:59:59.441Z,19.58
2023-03-06T02:02:26.655Z,18.30
2023-03-06T02:04:53.816Z,20.17
2023-03-06T02:07:21.098Z,22.10
2023-03-06T02:09:48.240Z,21.50
2023-03-06T02:12:18.750Z,19.80
2023-03-06T02:14:46.315Z,20.27
2023-03-06T02:17:15.169Z,21.25
2023-03-06T02:20:19.109Z,22.50
2023-03-06T02:22:55.349Z,22.40
2023-03-06T02:25:41.192Z,21.35
2023-03-06T02:28:11.796Z,19.75
2023-03-06T02:30:42.111Z,21.27
2023-03-06T02:33:15.235Z,19.83
2023-03-06T02:35:51.122Z,18.13
2023-03-06T02:38:19.801Z,16.70
2023-03-06T02:40:49.243Z,14.77
2023-03-06T02:43:18.885Z,14.85
2023-03-06T02:45:48.568Z,13.80
2023-03-06T02:48:16.254Z,18.27
2023-03-06T02:50:43.718Z,18.67
2023-03-06T02:53:12.317Z,17.25
2023-03-06T02:55:39.935Z,18.25
2023-03-06T02:58:07.437Z,18.77
2023-03-06T03:00:35.052Z,16.50
2023-03-06T03:03:05.186Z,12.65
2023-03-06T03:05:32.972Z,14.40
2023-03-06T03:08:07.240Z,10.10
2023-03-06T03:10:34.942Z,10.18
2023-03-06T03:13:02.728Z,8.25
2023-03-06T03:15:30.088Z,8.00
2023-03-06T03:17:57.981Z,8.15
2023-03-06T03:20:25.132Z,8.93
2023-03-06T03:22:55.111Z,6.93
2023-03-06T03:25:24.536Z,9.15
2023-03-06T03:27:53.735Z,7.28
2023-03-06T03:30:21.259Z,8.02
2023-03-06T03:32:48.876Z,8.38
2023-03-06T03:35:16.130Z,7.25
2023-03-06T03:37:43.473Z,10.57
2023-03-06T03:40:11.499Z,6.50
2023-03-06T03:42:38.769Z,7.78
2023-03-06T03:45:07.660Z,9.15
2023-03-06T03:47:34.877Z,7.80
2023-03-06T03:50:02.964Z,7.50
2023-03-06T03:52:30.290Z,8.18
2023-03-06T03:54:57.698Z,7.13
2023-03-06T03:57:25.785Z,7.78
2023-03-06T03:59:54.464Z,8.63
2023-03-06T04:02:40.828Z,8.35
2023-03-06T04:05:20.138Z,7.93
2023-03-06T04:07:48.729Z,9.18
2023-03-06T04:10:16.440Z,8.93
2023-03-06T04:12:44.056Z,8.70
2023-03-06T04:15:12.468Z,8.27
2023-03-06T04:17:40.241Z,7.18
2023-03-06T04:20:12.102Z,9.18
2023-03-06T04:22:39.356Z,9.15
2023-03-06T04:25:07.239Z,8.32
2023-03-06T04:27:34.694Z,8.13
2023-03-06T04:30:01.930Z,8.05
2023-03-06T04:32:30.703Z,7.53
2023-03-06T04:34:58.421Z,7.45
2023-03-06T04:37:26.681Z,9.60
2023-03-06T04:39:55.058Z,9.00
2023-03-06T04:42:22.253Z,31.02
2023-03-06T04:44:49.435Z,15.45
2023-03-06T04:47:18.978Z,9.95
2023-03-06T04:49:46.415Z,10.05
2023-03-06T04:52:13.524Z,15.88
2023-03-06T04:54:40.695Z,14.98
2023-03-06T04:57:07.868Z,17.85
2023-03-06T04:59:35.432Z,12.38
2023-03-06T05:02:04.142Z,10.57
2023-03-06T05:04:31.302Z,9.82
2023-03-06T05:06:58.398Z,9.93
2023-03-06T05:09:25.525Z,10.00
2023-03-06T05:11:52.718Z,10.15
2023-03-06T05:14:19.829Z,11.23
2023-03-06T05:16:46.990Z,10.20
2023-03-06T05:19:14.225Z,11.52
2023-03-06T05:21:41.331Z,11.18
2023-03-06T05:24:09.622Z,11.63
2023-03-06T05:26:36.764Z,10.65
2023-03-06T05:29:03.879Z,10.05
2023-03-06T05:31:31.050Z,11.15
2023-03-06T05:33:58.996Z,11.57
2023-03-06T05:36:26.212Z,9.55
2023-03-06T05:38:53.460Z,11.23
2023-03-06T05:41:20.647Z,10.82
2023-03-06T05:43:47.810Z,9.77
2023-03-06T05:46:15.019Z,11.77
2023-03-06T05:48:42.168Z,11.52
2023-03-06T05:51:10.377Z,11.93
2023-03-06T05:53:37.499Z,11.68
2023-03-06T05:56:07.098Z,9.70
2023-03-06T05:58:34.360Z,11.38
2023-03-06T06:01:08.045Z,13.13
2023-03-06T06:03:35.866Z,11.75
2023-03-06T06:06:07.896Z,13.10
2023-03-06T06:08:35.059Z,11.95
2023-03-06T06:11:02.310Z,15.52
2023-03-06T06:13:29.468Z,17.17
2023-03-06T06:15:56.621Z,17.52
2023-03-06T06:18:23.785Z,18.23
2023-03-06T06:20:51.335Z,16.33
2023-03-06T06:23:18.514Z,17.20
2023-03-06T06:25:45.685Z,16.25
2023-03-06T06:28:12.859Z,16.13
2023-03-06T06:30:40.003Z,18.42
2023-03-06T06:33:07.157Z,18.90
2023-03-06T06:35:37.208Z,16.65
2023-03-06T06:38:04.397Z,16.38
2023-03-06T06:40:31.537Z,23.88
2023-03-06T06:42:58.771Z,18.73
2023-03-06T06:45:25.950Z,14.57
2023-03-06T06:47:53.190Z,17.38
2023-03-06T06:50:20.473Z,12.73
2023-03-06T06:52:47.642Z,17.25
2023-03-06T06:55:14.869Z,13.90
2023-03-06T06:57:42.294Z,12.50
2023-03-06T07:00:12.989Z,14.55
2023-03-06T07:02:41.504Z,15.07
2023-03-06T07:05:09.355Z,14.73
2023-03-06T07:07:37.949Z,13.93
2023-03-06T07:10:11.085Z,12.77
2023-03-06T07:12:38.347Z,12.85
2023-03-06T07:15:06.941Z,11.48
2023-03-06T07:17:34.244Z,12.13
2023-03-06T07:20:01.632Z,12.15
2023-03-06T07:22:31.959Z,13.35
2023-03-06T07:25:06.706Z,11.90
2023-03-06T07:27:34.220Z,12.18
2023-03-06T07:30:01.497Z,11.63
2023-03-06T07:32:28.714Z,11.23
2023-03-06T07:35:17.181Z,12.65
2023-03-06T07:37:45.359Z,10.95
2023-03-06T07:40:12.779Z,12.88
2023-03-06T07:42:39.898Z,13.98
2023-03-06T07:45:12.784Z,11.30
2023-03-06T07:47:42.045Z,13.82
2023-03-06T07:50:09.876Z,12.02
2023-03-06T07:52:37.376Z,10.55
2023-03-06T07:55:08.471Z,9.85
2023-03-06T07:57:39.097Z,8.68
2023-03-06T08:00:09.255Z,8.93
2023-03-06T08:02:40.678Z,9.98
2023-03-06T08:05:08.975Z,10.20
2023-03-06T08:07:36.127Z,9.90
2023-03-06T08:10:03.676Z,10.55
2023-03-06T08:12:30.813Z,10.65
2023-03-06T08:14:57.954Z,11.23
2023-03-06T08:17:26.302Z,11.35
2023-03-06T08:19:53.792Z,11.18
2023-03-06T08:22:21.084Z,12.57
2023-03-06T08:24:48.451Z,7.72
2023-03-06T08:27:15.653Z,9.57
2023-03-06T08:29:42.800Z,9.95
2023-03-06T08:32:12.038Z,10.98
2023-03-06T08:34:41.110Z,10.50
2023-03-06T08:37:19.817Z,10.23
2023-03-06T08:39:46.950Z,10.43
2023-03-06T08:42:14.830Z,9.73
2023-03-06T08:44:43.300Z,9.98
2023-03-06T08:47:10.485Z,12.80
2023-03-06T08:49:39.666Z,8.68
2023-03-06T08:52:07.623Z,9.10
2023-03-06T08:54:36.035Z,7.80
2023-03-06T08:57:03.743Z,8.52
2023-03-06T08:59:35.185Z,7.80
2023-03-06T09:02:03.034Z,8.98
2023-03-06T09:04:31.319Z,11.48
2023-03-06T09:07:01.769Z,6.82
2023-03-06T09:09:28.902Z,7.15
2023-03-06T09:11:56.390Z,8.00
2023-03-06T09:14:23.568Z,7.22
2023-03-06T09:16:50.820Z,7.78
2023-03-06T09:19:18.130Z,7.97
2023-03-06T09:21:45.553Z,6.60
2023-03-06T09:24:12.705Z,7.50
2023-03-06T09:26:45.899Z,8.10
2023-03-06T09:29:16.221Z,8.77
2023-03-06T09:31:46.117Z,7.53
2023-03-06T09:34:13.296Z,10.48
2023-03-06T09:36:55.316Z,7.40
2023-03-06T09:39:28.664Z,8.10
2023-03-06T09:41:57.480Z,9.13
2023-03-06T09:44:36.544Z,6.85
2023-03-06T09:47:29.266Z,7.40
2023-03-06T09:50:14.009Z,8.60
2023-03-06T09:53:11.828Z,8.13
2023-03-06T09:58:27.275Z,7.50
2023-03-06T10:01:31.849Z,11.35
2023-03-06T10:04:24.856Z,11.57
2023-03-06T10:06:56.678Z,9.25
2023-03-06T10:09:48.660Z,14.23
2023-03-06T10:12:35.868Z,7.28
2023-03-06T10:15:13.332Z,9.65
2023-03-06T10:17:43.475Z,6.10
2023-03-06T10:20:36.751Z,8.70
2023-03-06T10:23:27.038Z,5.25
2023-03-06T10:26:19.762Z,6.88
2023-03-06T10:29:18.041Z,6.00
2023-03-06T10:31:45.214Z,5.82
2023-03-06T10:34:29.689Z,6.63
2023-03-06T10:36:59.421Z,6.28
2023-03-06T10:39:31.286Z,5.15
2023-03-06T10:41:58.824Z,6.18
2023-03-06T10:44:26.242Z,19.05
2023-03-06T10:46:54.491Z,8.27
2023-03-06T10:49:35.266Z,6.68
2023-03-06T10:52:07.441Z,5.85
2023-03-06T10:54:44.261Z,6.90
2023-03-06T10:57:30.760Z,6.50
2023-03-06T11:00:32.836Z,5.03
2023-03-06T11:03:16.989Z,5.25
2023-03-06T11:06:32.667Z,6.20
2023-03-06T11:11:51.224Z,4.70
2023-03-06T11:14:27.425Z,6.65
2023-03-06T11:16:54.894Z,4.13
2023-03-06T11:19:29.118Z,4.97
2023-03-06T11:24:43.691Z,6.03
2023-03-06T11:27:34.605Z,6.80
2023-03-06T11:30:13.077Z,4.80
2023-03-06T11:33:04.967Z,5.47
2023-03-06T11:35:39.542Z,6.72
2023-03-06T11:38:16.776Z,6.63
2023-03-06T11:40:52.044Z,6.38
2023-03-06T11:43:53.043Z,7.07
2023-03-06T11:47:15.746Z,5.78
2023-03-06T11:50:19.373Z,5.85
2023-03-06T11:53:38.125Z,7.63
2023-03-06T11:56:42.830Z,6.25
2023-03-06T11:59:47.776Z,6.82
2023-03-06T12:02:51.673Z,6.57
2023-03-06T12:05:47.468Z,6.38
2023-03-06T12:08:38.832Z,7.30
2023-03-06T12:11:45.208Z,8.93
2023-03-06T12:14:53.105Z,7.22
2023-03-06T12:18:36.606Z,76.03
2023-03-06T12:21:47.868Z,8.52
2023-03-06T12:24:51.761Z,8.05
2023-03-06T12:27:35.315Z,6.47
2023-03-06T12:30:37.879Z,5.28
2023-03-06T12:33:46.812Z,8.20
2023-03-06T12:43:29.193Z,8.25
2023-03-06T12:46:25.360Z,5.78
2023-03-06T12:49:32.925Z,8.07
2023-03-06T12:52:03.283Z,7.88
2023-03-06T12:54:37.892Z,7.20
2023-03-06T12:57:17.290Z,9.32
2023-03-06T13:02:44.010Z,9.23
2023-03-06T13:05:49.186Z,6.53
2023-03-06T13:09:01.426Z,6.57
2023-03-06T13:12:01.766Z,9.93
2023-03-06T13:14:48.652Z,6.60
2023-03-06T13:17:28.467Z,9.00
2023-03-06T13:20:38.071Z,8.38
2023-03-06T13:23:44.077Z,7.28
2023-03-06T13:26:25.979Z,7.63
2023-03-06T13:28:54.547Z,5.72
2023-03-06T13:31:29.635Z,6.13
2023-03-06T13:34:26.711Z,6.85
2023-03-06T13:36:53.891Z,6.05
2023-03-06T13:39:21.079Z,6.10
2023-03-06T13:41:58.761Z,7.93
2023-03-06T13:44:25.864Z,7.65
2023-03-06T13:47:06.249Z,6.60
2023-03-06T13:49:33.684Z,6.75
2023-03-06T13:52:03.723Z,9.98
2023-03-06T13:55:30.501Z,6.47
2023-03-06T13:58:34.257Z,6.18
2023-03-06T14:01:19.442Z,5.40
2023-03-06T14:04:30.705Z,6.90
2023-03-06T14:07:06.634Z,8.27
2023-03-06T14:09:41.996Z,6.32
2023-03-06T14:12:26.507Z,6.95
2023-03-06T14:17:35.696Z,6.47
2023-03-06T14:20:17.828Z,8.57
2023-03-06T14:22:44.951Z,7.60
2023-03-06T14:25:24.273Z,10.93
2023-03-06T14:27:53.505Z,7.93
2023-03-06T14:30:25.298Z,7.90
2023-03-06T14:32:54.780Z,8.30
2023-03-06T14:35:28.572Z,11.43
2023-03-06T14:37:59.584Z,11.52
2023-03-06T14:40:34.637Z,13.38
2023-03-06T14:43:22.231Z,10.68
2023-03-06T14:46:02.467Z,12.35
2023-03-06T14:48:44.999Z,12.95
2023-03-06T14:51:33.302Z,12.77
2023-03-06T14:54:01.339Z,12.77
2023-03-06T14:56:28.712Z,11.32
2023-03-06T14:59:04.025Z,12.30
2023-03-06T15:01:41.325Z,11.85
2023-03-06T15:04:25.770Z,13.93
2023-03-06T15:06:53.095Z,11.43
2023-03-06T15:09:27.008Z,12.57
2023-03-06T15:12:20.066Z,14.48
2023-03-06T15:15:03.693Z,13.77
2023-03-06T15:17:38.918Z,18.57
2023-03-06T15:20:10.124Z,16.70
2023-03-06T15:22:43.606Z,17.08
2023-03-06T15:25:19.878Z,16.07
2023-03-06T15:28:35.220Z,16.08
2023-03-06T15:31:42.287Z,13.93
2023-03-06T15:34:09.408Z,14.30
2023-03-06T15:36:44.328Z,16.27
2023-03-06T15:39:40.683Z,19.17
2023-03-06T15:42:16.725Z,18.58
2023-03-06T15:44:53.156Z,17.25
2023-03-06T15:47:21.426Z,19.65
2023-03-06T15:49:52.039Z,14.95
2023-03-06T15:52:22.723Z,17.15
2023-03-06T15:54:50.000Z,13.38
2023-03-06T15:57:29.083Z,18.10
2023-03-06T15:59:56.458Z,16.38
2023-03-06T16:02:24.352Z,17.35
2023-03-06T16:04:52.877Z,18.10
2023-03-06T16:07:20.653Z,17.05
2023-03-06T16:09:47.866Z,16.85
2023-03-06T16:12:21.677Z,18.67
2023-03-06T16:14:49.131Z,13.63
2023-03-06T16:17:16.839Z,19.98
2023-03-06T16:19:44.182Z,22.00
2023-03-06T16:22:11.500Z,23.35
2023-03-06T16:24:38.676Z,21.70
2023-03-06T16:27:07.027Z,19.17
2023-03-06T16:29:35.156Z,22.45
2023-03-06T16:32:02.582Z,20.98
2023-03-06T16:34:29.831Z,22.08
2023-03-06T16:36:57.371Z,21.98
2023-03-06T16:39:30.175Z,20.17
2023-03-06T16:41:57.317Z,23.33
2023-03-06T16:44:24.458Z,21.05
2023-03-06T16:46:51.776Z,25.42
2023-03-06T16:49:21.478Z,25.05
2023-03-06T16:51:49.125Z,20.88
2023-03-06T16:54:16.401Z,24.40
2023-03-06T16:56:43.868Z,22.77
2023-03-06T16:59:12.002Z,23.13
2023-03-06T17:01:40.592Z,23.67
2023-03-06T17:04:08.006Z,23.10
2023-03-06T17:06:35.133Z,21.20
2023-03-06T17:09:02.261Z,27.45
2023-03-06T17:11:29.718Z,27.45
2023-03-06T17:13:56.932Z,29.67
2023-03-06T17:16:24.115Z,29.10
2023-03-06T17:18:51.423Z,31.13
2023-03-06T17:21:19.102Z,30.08
2023-03-06T17:23:46.344Z,28.65
2023-03-06T17:26:20.133Z,30.08
2023-03-06T17:28:47.725Z,25.55
2023-03-06T17:31:26.170Z,27.85
2023-03-06T17:33:57.124Z,26.27
2023-03-06T17:36:24.290Z,29.70
2023-03-06T17:38:54.155Z,28.20
2023-03-06T17:41:24.375Z,29.85
2023-03-06T17:43:52.472Z,28.52
2023-03-06T17:46:19.808Z,26.38
2023-03-06T17:48:47.143Z,27.33
2023-03-06T17:51:14.420Z,28.88
2023-03-06T17:53:41.623Z,24.80
2023-03-06T17:56:11.910Z,26.70
2023-03-06T17:58:39.088Z,23.95
2023-03-06T18:01:20.743Z,25.02
2023-03-06T18:03:50.059Z,23.88
2023-03-06T18:06:17.671Z,23.00
2023-03-06T18:08:45.824Z,23.23
2023-03-06T18:11:13.276Z,24.88
2023-03-06T18:13:42.493Z,24.48
2023-03-06T18:16:11.128Z,21.00
2023-03-06T18:18:38.526Z,22.85
2023-03-06T18:21:10.092Z,25.95
2023-03-06T18:23:40.590Z,21.65
2023-03-06T18:26:24.785Z,21.92
2023-03-06T18:28:56.430Z,22.80
2023-03-06T18:31:29.209Z,19.92
2023-03-06T18:34:10.659Z,21.88
2023-03-06T18:36:40.525Z,20.40
2023-03-06T18:39:09.538Z,22.75
2023-03-06T18:41:36.814Z,25.63
2023-03-06T18:44:04.078Z,22.25
2023-03-06T18:46:36.883Z,21.65
2023-03-06T18:49:04.877Z,21.35
2023-03-06T18:51:32.297Z,25.13
2023-03-06T18:54:00.443Z,27.33
2023-03-06T18:56:30.785Z,30.88
2023-03-06T18:59:04.458Z,31.90
2023-03-06T19:01:34.361Z,28.77
2023-03-06T19:04:03.123Z,28.88
2023-03-06T19:06:30.474Z,26.55
2023-03-06T19:09:02.151Z,29.60
2023-03-06T19:11:29.323Z,28.30
2023-03-06T19:13:56.695Z,27.80
2023-03-06T19:16:26.658Z,31.88
2023-03-06T19:18:57.260Z,27.67
2023-03-06T19:21:27.984Z,27.25
2023-03-06T19:23:56.101Z,25.42
2023-03-06T19:26:23.399Z,25.95
2023-03-06T19:28:51.096Z,22.00
2023-03-06T19:31:27.037Z,27.85
2023-03-06T19:33:56.800Z,27.25
2023-03-06T19:36:28.662Z,27.58
2023-03-06T19:39:00.231Z,28.27
2023-03-06T19:41:27.993Z,31.15
2023-03-06T19:43:59.620Z,27.33
2023-03-06T19:46:27.269Z,28.92
2023-03-06T19:49:01.184Z,34.08
2023-03-06T19:51:28.632Z,33.20
2023-03-06T19:53:56.879Z,30.33
2023-03-06T19:56:27.358Z,28.13
2023-03-06T19:58:57.165Z,26.98
2023-03-06T20:01:26.175Z,32.75
2023-03-06T20:04:00.354Z,27.75
2023-03-06T20:06:29.963Z,27.77
2023-03-06T20:08:57.262Z,23.45
2023-03-06T20:11:26.860Z,20.73
2023-03-06T20:13:54.297Z,23.77
2023-03-06T20:16:21.586Z,25.23
2023-03-06T20:18:48.750Z,23.98
2023-03-06T20:21:15.917Z,26.13
2023-03-06T20:23:43.270Z,24.13
2023-03-06T20:26:12.212Z,24.80
2023-03-06T20:28:40.007Z,25.08
2023-03-06T20:31:20.971Z,28.05
2023-03-06T20:33:50.519Z,26.92
2023-03-06T20:36:20.180Z,29.25
2023-03-06T20:38:47.459Z,30.98
2023-03-06T20:41:25.826Z,26.50
2023-03-06T20:43:53.113Z,26.38
2023-03-06T20:46:21.560Z,26.33
2023-03-06T20:48:50.846Z,25.63
2023-03-06T20:51:24.133Z,25.63
2023-03-06T20:53:53.620Z,27.52
2023-03-06T20:56:23.776Z,32.85
2023-03-06T20:58:51.008Z,27.80
2023-03-06T21:01:26.865Z,28.40
2023-03-06T21:03:54.259Z,30.77
2023-03-06T21:06:21.506Z,31.42
2023-03-06T21:08:51.623Z,28.65
2023-03-06T21:11:18.819Z,28.63
2023-03-06T21:13:45.999Z,25.92
2023-03-06T21:16:17.179Z,23.48
2023-03-06T21:18:44.724Z,28.55
2023-03-06T21:21:19.239Z,23.00
2023-03-06T21:23:47.334Z,24.77
2023-03-06T21:26:18.428Z,21.60
2023-03-06T21:28:45.714Z,23.65
2023-03-06T21:31:14.208Z,24.88
2023-03-06T21:33:42.004Z,21.35
2023-03-06T21:36:09.295Z,21.20
2023-03-06T21:38:36.488Z,21.65
2023-03-06T21:41:14.770Z,22.10
2023-03-06T21:43:42.626Z,23.55
2023-03-06T21:46:10.494Z,22.35
2023-03-06T21:48:37.823Z,22.15
2023-03-06T21:51:13.134Z,21.77
2023-03-06T21:53:44.227Z,18.80
2023-03-06T21:56:11.718Z,24.60
2023-03-06T21:58:38.943Z,27.25
2023-03-06T22:01:16.047Z,28.70
2023-03-06T22:03:43.250Z,23.08
2023-03-06T22:06:19.192Z,24.73
2023-03-06T22:08:46.525Z,23.75
2023-03-06T22:11:21.149Z,25.25
2023-03-06T22:13:48.511Z,31.98
2023-03-06T22:16:16.206Z,28.77
2023-03-06T22:18:47.470Z,30.60
2023-03-06T22:21:17.159Z,35.65
2023-03-06T22:23:44.356Z,32.25
2023-03-06T22:26:12.949Z,31.90
2023-03-06T22:28:40.717Z,33.58
2023-03-06T22:31:24.056Z,34.85
2023-03-06T22:33:55.031Z,32.72
2023-03-06T22:36:22.291Z,32.00
2023-03-06T22:38:49.723Z,31.75
2023-03-06T22:41:17.485Z,35.42
2023-03-06T22:43:44.681Z,33.72
2023-03-06T22:46:14.609Z,33.80
2023-03-06T22:48:42.003Z,30.45
2023-03-06T22:51:12.498Z,31.75
2023-03-06T22:53:40.081Z,31.25
2023-03-06T22:56:08.423Z,32.00
2023-03-06T22:58:37.245Z,37.83
2023-03-06T23:01:09.768Z,35.05
2023-03-06T23:03:38.309Z,33.40
2023-03-06T23:06:14.351Z,34.22
2023-03-06T23:08:42.093Z,34.58
2023-03-06T23:11:14.188Z,35.35
2023-03-06T23:14:00.742Z,34.90
2023-03-06T23:16:46.801Z,33.80
2023-03-06T23:19:32.464Z,33.78
2023-03-06T23:22:18.133Z,35.03
2023-03-06T23:25:03.525Z,34.10
2023-03-06T23:27:30.665Z,35.58
2023-03-06T23:29:59.130Z,38.67
2023-03-06T23:32:26.423Z,34.28
2023-03-06T23:34:53.585Z,36.97
2023-03-06T23:37:20.829Z,33.67
2023-03-06T23:39:51.489Z,33.63
2023-03-06T23:42:19.934Z,34.83
2023-03-06T23:44:47.112Z,33.90
2023-03-06T23:47:14.333Z,32.67
2023-03-06T23:49:41.514Z,37.03
2023-03-06T23:52:08.668Z,31.55
2023-03-06T23:54:35.858Z,35.55
2023-03-06T23:57:03.009Z,34.05
2023-03-06T23:59:30.128Z,30.17
